createdAt,value
2019-04-22T00:01:04.793Z,38.00
2019-04-22T00:03:39.145Z,37.90
2019-04-22T00:06:27.408Z,38.40
2019-04-22T00:08:56.034Z,38.23
2019-04-22T00:11:30.344Z,38.47
2019-04-22T00:13:56.950Z,38.40
2019-04-22T00:16:33.900Z,39.20
2019-04-22T00:21:35.313Z,38.17
2019-04-22T00:23:58.551Z,39.97
2019-04-22T00:26:28.989Z,38.30
2019-04-22T00:29:14.500Z,40.17
2019-04-22T00:31:41.676Z,40.10
2019-04-22T00:34:14.152Z,39.60
2019-04-22T00:36:43.775Z,38.73
2019-04-22T00:39:22.089Z,39.47
2019-04-22T00:41:50.547Z,37.90
2019-04-22T00:44:20.494Z,38.07
2019-04-22T00:46:46.800Z,38.80
2019-04-22T00:50:03.682Z,38.90
2019-04-22T00:51:52.632Z,38.17
2019-04-22T00:54:17.702Z,39.07
2019-04-22T00:56:47.767Z,38.20
2019-04-22T00:59:17.354Z,37.93
2019-04-22T01:01:42.990Z,38.20
2019-04-22T01:04:27.972Z,36.67
2019-04-22T01:06:45.911Z,37.63
2019-04-22T01:09:17.462Z,38.07
2019-04-22T01:11:45.371Z,38.80
2019-04-22T01:14:21.969Z,37.40
2019-04-22T01:17:00.094Z,37.10
2019-04-22T01:19:29.642Z,38.23
2019-04-22T01:22:03.072Z,37.17
2019-04-22T01:24:28.070Z,37.17
2019-04-22T01:26:53.518Z,38.40
2019-04-22T01:29:22.598Z,38.00
2019-04-22T01:31:47.396Z,37.77
2019-04-22T01:34:33.440Z,37.47
2019-04-22T01:40:00.149Z,38.07
2019-04-22T01:42:28.610Z,37.53
2019-04-22T01:44:58.184Z,35.80
2019-04-22T01:47:36.760Z,35.70
2019-04-22T01:50:10.069Z,34.57
2019-04-22T01:52:41.668Z,35.00
2019-04-22T01:57:35.272Z,33.47
2019-04-22T02:00:01.062Z,34.00
2019-04-22T02:02:44.088Z,34.00
2019-04-22T02:05:13.413Z,34.50
2019-04-22T02:07:42.390Z,33.77
2019-04-22T02:10:26.858Z,34.67
2019-04-22T02:12:45.932Z,33.27
2019-04-22T02:15:17.404Z,34.70
2019-04-22T02:18:10.657Z,34.50
2019-04-22T02:20:18.402Z,34.50
2019-04-22T02:23:40.250Z,34.10
2019-04-22T02:25:56.055Z,33.60
2019-04-22T02:28:32.513Z,32.93
2019-04-22T02:36:18.592Z,31.63
2019-04-22T02:46:22.919Z,33.77
2019-04-22T02:58:55.135Z,32.03
2019-04-22T03:01:27.523Z,31.73
2019-04-22T03:06:29.015Z,31.80
2019-04-22T03:08:45.577Z,32.30
2019-04-22T03:11:19.046Z,32.23
2019-04-22T03:26:35.074Z,29.40
2019-04-22T03:31:57.932Z,29.93
2019-04-22T03:34:57.629Z,30.67
2019-04-22T03:46:53.661Z,27.20
2019-04-22T03:59:26.928Z,26.27
2019-04-22T04:01:50.940Z,27.13
2019-04-22T04:04:32.921Z,25.23
2019-04-22T04:09:33.896Z,24.73
2019-04-22T04:12:03.572Z,25.33
2019-04-22T04:14:44.560Z,25.07
2019-04-22T04:17:14.607Z,26.07
2019-04-22T04:22:08.001Z,26.07
2019-04-22T04:27:22.806Z,26.67
2019-04-22T04:29:51.423Z,25.67
2019-04-22T04:32:24.949Z,26.27
2019-04-22T04:34:56.286Z,25.03
2019-04-22T04:37:17.881Z,23.53
2019-04-22T04:39:51.058Z,24.57
2019-04-22T04:44:59.042Z,24.03
2019-04-22T04:47:25.927Z,23.50
2019-04-22T04:49:43.575Z,23.70
2019-04-22T04:52:19.344Z,24.63
2019-04-22T04:54:51.934Z,23.70
2019-04-22T04:57:14.861Z,24.03
2019-04-22T05:00:06.008Z,23.63
2019-04-22T05:02:20.166Z,23.50
2019-04-22T05:09:47.343Z,24.23
2019-04-22T05:14:48.860Z,23.70
2019-04-22T05:17:25.514Z,22.70
2019-04-22T05:19:56.851Z,22.83
2019-04-22T05:22:23.200Z,23.07
2019-04-22T05:24:56.236Z,23.17
2019-04-22T05:27:29.450Z,21.43
2019-04-22T05:30:07.508Z,21.23
2019-04-22T05:32:24.644Z,20.47
2019-04-22T05:34:54.036Z,20.73
2019-04-22T05:39:49.674Z,19.63
2019-04-22T05:42:18.101Z,19.83
2019-04-22T05:44:54.995Z,19.37
2019-04-22T05:47:22.484Z,20.30
2019-04-22T05:49:47.734Z,20.97
2019-04-22T05:52:21.235Z,20.33
2019-04-22T05:54:55.034Z,19.93
2019-04-22T05:57:26.124Z,19.90
2019-04-22T06:00:18.330Z,19.83
2019-04-22T06:02:32.526Z,21.13
2019-04-22T06:04:59.179Z,20.77
2019-04-22T06:07:29.697Z,23.33
2019-04-22T06:10:08.375Z,22.73
2019-04-22T06:12:26.544Z,25.73
2019-04-22T06:15:03.775Z,25.10
2019-04-22T06:20:12.235Z,25.53
2019-04-22T06:22:56.789Z,25.23
2019-04-22T06:25:43.409Z,23.80
2019-04-22T06:27:42.430Z,23.23
2019-04-22T06:30:18.470Z,80.07
2019-04-22T06:32:39.810Z,153.60
2019-04-22T06:35:27.962Z,101.63
2019-04-22T06:37:55.069Z,82.60
2019-04-22T06:40:19.817Z,68.30
2019-04-22T06:42:51.911Z,34.10
2019-04-22T06:45:21.892Z,21.70
2019-04-22T06:50:30.285Z,17.03
2019-04-22T06:52:48.078Z,16.90
2019-04-22T06:55:24.847Z,15.63
2019-04-22T06:57:43.634Z,17.77
2019-04-22T07:03:27.148Z,14.77
2019-04-22T07:05:28.507Z,15.43
2019-04-22T07:08:05.588Z,15.33
2019-04-22T07:12:54.266Z,14.00
2019-04-22T07:15:42.392Z,13.17
2019-04-22T07:18:04.251Z,15.67
2019-04-22T07:20:30.548Z,14.33
2019-04-22T07:23:06.776Z,14.23
2019-04-22T07:25:29.537Z,12.53
2019-04-22T07:27:58.553Z,12.30
2019-04-22T07:30:31.307Z,11.80
2019-04-22T07:35:44.376Z,11.30
2019-04-22T07:38:14.349Z,14.53
2019-04-22T07:40:40.546Z,10.47
2019-04-22T07:43:04.401Z,10.10
2019-04-22T07:45:40.852Z,10.30
2019-04-22T07:48:18.888Z,9.47
2019-04-22T07:50:49.331Z,10.13
2019-04-22T07:53:08.370Z,8.77
2019-04-22T07:55:39.852Z,8.00
2019-04-22T07:58:11.838Z,8.07
2019-04-22T08:00:39.028Z,7.60
2019-04-22T08:03:19.462Z,8.20
2019-04-22T08:05:51.911Z,7.37
2019-04-22T08:08:21.491Z,8.33
2019-04-22T08:10:48.499Z,7.20
2019-04-22T08:13:11.676Z,7.47
2019-04-22T08:15:48.581Z,6.77
2019-04-22T08:18:22.168Z,8.10
2019-04-22T08:20:52.824Z,8.17
2019-04-22T08:23:16.349Z,7.17
2019-04-22T08:25:44.231Z,6.63
2019-04-22T08:28:19.034Z,6.40
2019-04-22T08:30:54.839Z,6.40
2019-04-22T08:33:22.115Z,7.00
2019-04-22T08:36:07.211Z,6.97
2019-04-22T08:38:36.751Z,6.70
2019-04-22T08:44:02.331Z,6.13
2019-04-22T08:46:34.111Z,5.97
2019-04-22T08:51:30.999Z,6.00
2019-04-22T08:59:28.397Z,6.30
2019-04-22T09:02:02.794Z,5.70
2019-04-22T09:04:27.855Z,6.40
2019-04-22T09:07:20.293Z,6.50
2019-04-22T09:09:37.911Z,6.17
2019-04-22T09:12:08.223Z,5.83
2019-04-22T09:14:37.941Z,6.60
2019-04-22T09:17:13.356Z,6.73
2019-04-22T09:19:34.052Z,6.37
2019-04-22T09:24:38.722Z,6.13
2019-04-22T09:27:11.555Z,6.23
2019-04-22T09:30:01.676Z,6.20
2019-04-22T09:32:36.324Z,7.27
2019-04-22T09:34:58.919Z,7.53
2019-04-22T09:37:34.604Z,7.07
2019-04-22T09:40:09.189Z,6.93
2019-04-22T09:42:32.285Z,6.92
2019-04-22T09:44:59.193Z,7.53
2019-04-22T09:47:36.827Z,7.40
2019-04-22T09:50:03.693Z,7.70
2019-04-22T09:52:28.021Z,7.50
2019-04-22T09:55:09.563Z,6.72
2019-04-22T09:57:31.507Z,6.80
2019-04-22T10:00:09.803Z,6.90
2019-04-22T10:05:07.844Z,6.90
2019-04-22T10:07:39.496Z,6.47
2019-04-22T10:10:10.848Z,6.28
2019-04-22T10:12:36.517Z,5.80
2019-04-22T10:14:59.836Z,5.80
2019-04-22T10:17:32.437Z,5.95
2019-04-22T10:20:07.199Z,5.47
2019-04-22T10:22:44.001Z,5.50
2019-04-22T10:25:08.698Z,4.97
2019-04-22T10:27:32.737Z,4.33
2019-04-22T10:30:03.032Z,4.40
2019-04-22T10:32:37.622Z,4.17
2019-04-22T10:35:05.049Z,4.20
2019-04-22T10:37:30.369Z,3.85
2019-04-22T10:40:02.938Z,4.37
2019-04-22T10:45:12.379Z,4.12
2019-04-22T10:47:42.376Z,4.20
2019-04-22T10:50:12.479Z,4.03
2019-04-22T10:52:43.509Z,4.10
2019-04-22T10:55:17.143Z,4.60
2019-04-22T10:57:46.858Z,4.70
2019-04-22T11:00:19.998Z,4.85
2019-04-22T11:02:49.735Z,4.85
2019-04-22T11:05:19.965Z,4.33
2019-04-22T11:07:53.794Z,4.20
2019-04-22T11:10:35.384Z,3.55
2019-04-22T11:12:51.496Z,5.83
2019-04-22T11:15:22.437Z,4.00
2019-04-22T11:17:51.642Z,3.50
2019-04-22T11:20:21.811Z,3.95
2019-04-22T11:22:51.136Z,3.60
2019-04-22T11:25:23.639Z,3.55
2019-04-22T11:27:53.738Z,4.08
2019-04-22T11:30:25.941Z,3.33
2019-04-22T11:32:54.206Z,3.80
2019-04-22T11:35:23.716Z,3.27
2019-04-22T11:37:56.826Z,3.42
2019-04-22T11:40:33.818Z,3.22
2019-04-22T11:42:56.581Z,3.42
2019-04-22T11:45:27.072Z,3.50
2019-04-22T11:47:57.243Z,3.05
2019-04-22T11:50:26.431Z,3.30
2019-04-22T11:52:55.333Z,3.30
2019-04-22T11:55:24.591Z,2.83
2019-04-22T11:57:54.018Z,2.85
2019-04-22T12:00:27.025Z,2.85
2019-04-22T12:02:56.763Z,3.45
2019-04-22T12:05:28.051Z,2.95
2019-04-22T12:08:15.503Z,3.00
2019-04-22T12:10:51.575Z,3.12
2019-04-22T12:13:15.823Z,3.10
2019-04-22T12:15:44.845Z,3.02
2019-04-22T12:18:15.282Z,4.17
2019-04-22T12:20:45.419Z,2.77
2019-04-22T12:23:14.806Z,2.58
2019-04-22T12:25:52.504Z,3.02
2019-04-22T12:28:15.042Z,2.80
2019-04-22T12:30:44.018Z,2.83
2019-04-22T12:33:14.771Z,2.87
2019-04-22T12:35:44.226Z,3.00
2019-04-22T12:38:16.216Z,2.80
2019-04-22T12:40:51.193Z,2.90
2019-04-22T12:43:16.147Z,3.58
2019-04-22T12:45:44.766Z,3.08
2019-04-22T12:48:14.848Z,3.30
2019-04-22T12:50:45.928Z,3.25
2019-04-22T12:53:18.027Z,3.20
2019-04-22T12:55:45.916Z,2.85
2019-04-22T12:58:15.783Z,2.92
2019-04-22T13:00:44.977Z,3.17
2019-04-22T13:03:13.909Z,3.10
2019-04-22T13:05:43.091Z,2.60
2019-04-22T13:08:11.759Z,3.00
2019-04-22T13:10:51.360Z,3.10
2019-04-22T13:13:11.299Z,3.30
2019-04-22T13:15:41.277Z,2.95
2019-04-22T13:18:20.777Z,3.10
2019-04-22T13:20:40.401Z,2.67
2019-04-22T13:23:09.503Z,2.70
2019-04-22T13:25:38.902Z,2.92
2019-04-22T13:28:11.356Z,3.12
2019-04-22T13:30:41.240Z,2.75
2019-04-22T13:33:14.672Z,2.70
2019-04-22T13:35:42.025Z,2.92
2019-04-22T13:38:11.243Z,3.55
2019-04-22T13:40:55.865Z,2.55
2019-04-22T13:43:11.115Z,2.80
2019-04-22T13:45:40.779Z,2.65
2019-04-22T13:48:29.252Z,2.70
2019-04-22T13:56:10.620Z,2.80
2019-04-22T13:58:31.549Z,2.77
2019-04-22T14:00:49.421Z,2.80
2019-04-22T14:03:37.893Z,2.60
2019-04-22T14:06:09.051Z,2.83
2019-04-22T14:08:37.656Z,3.27
2019-04-22T14:11:20.724Z,2.77
2019-04-22T14:13:37.712Z,3.40
2019-04-22T14:16:08.883Z,2.65
2019-04-22T14:18:39.023Z,2.77
2019-04-22T14:21:09.115Z,2.83
2019-04-22T14:23:38.439Z,3.33
2019-04-22T14:26:07.333Z,3.10
2019-04-22T14:28:37.368Z,3.45
2019-04-22T14:31:06.735Z,2.52
2019-04-22T14:33:36.298Z,2.65
2019-04-22T14:36:05.333Z,3.33
2019-04-22T14:38:34.722Z,2.87
2019-04-22T14:41:03.959Z,2.98
2019-04-22T14:44:00.677Z,3.05
2019-04-22T14:46:29.221Z,2.77
2019-04-22T14:48:56.046Z,2.80
2019-04-22T14:51:23.933Z,2.35
2019-04-22T14:53:50.228Z,2.80
2019-04-22T14:56:04.454Z,2.98
2019-04-22T14:58:33.181Z,3.05
2019-04-22T15:01:03.218Z,3.25
2019-04-22T15:03:31.837Z,2.55
2019-04-22T15:06:02.084Z,2.80
2019-04-22T15:08:31.092Z,2.80
2019-04-22T15:11:00.175Z,2.15
2019-04-22T15:13:29.396Z,2.60
2019-04-22T15:16:03.166Z,2.75
2019-04-22T15:18:33.631Z,2.42
2019-04-22T15:21:04.970Z,2.15
2019-04-22T15:23:34.821Z,2.52
2019-04-22T15:26:04.601Z,3.00
2019-04-22T15:28:33.476Z,2.58
2019-04-22T15:31:03.490Z,2.70
2019-04-22T15:33:33.075Z,3.02
2019-04-22T15:36:01.802Z,2.37
2019-04-22T15:38:32.274Z,2.60
2019-04-22T15:41:02.742Z,2.47
2019-04-22T15:43:35.172Z,2.35
2019-04-22T15:46:03.913Z,2.80
2019-04-22T15:48:34.110Z,2.75
2019-04-22T15:51:02.977Z,2.83
2019-04-22T15:53:31.772Z,2.52
2019-04-22T15:56:00.775Z,2.70
2019-04-22T15:58:31.171Z,2.72
2019-04-22T16:01:08.758Z,2.10
2019-04-22T16:03:30.336Z,2.47
2019-04-22T16:06:02.011Z,2.65
2019-04-22T16:08:33.408Z,3.08
2019-04-22T16:11:00.057Z,2.85
2019-04-22T16:13:32.038Z,2.75
2019-04-22T16:15:58.881Z,2.70
2019-04-22T16:18:28.410Z,2.98
2019-04-22T16:20:58.691Z,2.72
2019-04-22T16:23:44.735Z,3.00
2019-04-22T16:26:22.080Z,2.90
2019-04-22T16:28:53.749Z,2.72
2019-04-22T16:31:21.751Z,2.40
2019-04-22T16:33:50.515Z,2.72
2019-04-22T16:36:20.659Z,2.65
2019-04-22T16:38:50.859Z,2.85
2019-04-22T16:41:21.001Z,2.45
2019-04-22T16:43:50.781Z,2.58
2019-04-22T16:46:19.608Z,2.83
2019-04-22T16:48:49.570Z,2.50
2019-04-22T16:51:18.431Z,2.65
2019-04-22T16:53:47.484Z,2.60
2019-04-22T16:56:17.068Z,3.00
2019-04-22T16:58:46.538Z,2.90
2019-04-22T17:01:32.669Z,2.90
2019-04-22T17:04:14.923Z,3.17
2019-04-22T17:06:45.559Z,3.30
2019-04-22T17:09:17.429Z,3.30
2019-04-22T17:11:47.954Z,3.17
2019-04-22T17:14:23.992Z,2.95
2019-04-22T17:16:48.574Z,3.87
2019-04-22T17:19:17.713Z,4.42
2019-04-22T17:21:47.562Z,3.45
2019-04-22T17:24:17.459Z,3.30
2019-04-22T17:26:46.410Z,3.67
2019-04-22T17:29:16.626Z,2.60
2019-04-22T17:31:52.182Z,2.90
2019-04-22T17:34:15.897Z,2.90
2019-04-22T17:36:46.255Z,2.70
2019-04-22T17:39:30.234Z,2.83
2019-04-22T17:42:01.995Z,2.83
2019-04-22T17:44:58.520Z,2.80
2019-04-22T17:47:02.525Z,3.02
2019-04-22T17:49:51.060Z,3.00
2019-04-22T17:52:25.800Z,3.02
2019-04-22T17:54:50.375Z,3.20
2019-04-22T17:57:21.731Z,2.70
2019-04-22T17:59:51.817Z,3.05
2019-04-22T18:02:22.526Z,2.92
2019-04-22T18:04:46.005Z,2.80
2019-04-22T18:15:14.905Z,3.55
2019-04-22T18:17:57.042Z,4.17
2019-04-22T18:20:16.674Z,7.42
2019-04-22T18:22:38.151Z,4.70
2019-04-22T18:25:11.519Z,5.63
2019-04-22T18:27:57.354Z,4.17
2019-04-22T18:30:16.647Z,3.62
2019-04-22T18:32:52.123Z,3.83
2019-04-22T18:35:14.211Z,3.85
2019-04-22T18:37:50.002Z,4.33
2019-04-22T18:40:18.246Z,4.22
2019-04-22T18:42:55.316Z,3.95
2019-04-22T18:45:35.771Z,3.80
2019-04-22T18:47:45.581Z,3.35
2019-04-22T18:50:26.534Z,3.33
2019-04-22T18:52:54.557Z,3.40
2019-04-22T18:55:32.271Z,3.53
2019-04-22T18:58:02.958Z,3.20
2019-04-22T19:00:21.367Z,3.47
2019-04-22T19:02:55.785Z,3.50
2019-04-22T19:05:35.888Z,3.90
2019-04-22T19:08:18.325Z,4.30
2019-04-22T19:10:51.798Z,3.92
2019-04-22T19:13:49.051Z,3.80
2019-04-22T19:15:54.196Z,3.55
2019-04-22T19:18:29.115Z,3.62
2019-04-22T19:20:51.609Z,3.60
2019-04-22T19:23:20.859Z,4.10
2019-04-22T19:25:42.140Z,4.13
2019-04-22T19:28:26.921Z,4.17
2019-04-22T19:30:51.282Z,3.60
2019-04-22T19:33:18.954Z,4.60
2019-04-22T19:35:43.507Z,4.50
2019-04-22T19:38:12.197Z,4.47
2019-04-22T19:41:03.116Z,4.97
2019-04-22T19:43:22.655Z,4.50
2019-04-22T19:45:46.014Z,4.80
2019-04-22T19:48:31.003Z,5.17
2019-04-22T19:51:01.468Z,4.90
2019-04-22T19:53:26.163Z,5.13
2019-04-22T19:55:52.468Z,5.27
2019-04-22T19:58:20.089Z,4.90
2019-04-22T20:00:49.182Z,7.23
2019-04-22T20:03:50.874Z,4.90
2019-04-22T20:06:33.537Z,5.00
2019-04-22T20:09:13.875Z,5.00
2019-04-22T20:11:49.456Z,5.30
2019-04-22T20:14:43.583Z,5.07
2019-04-22T20:17:07.972Z,4.93
2019-04-22T20:19:45.908Z,6.03
2019-04-22T20:22:17.618Z,5.43
2019-04-22T20:24:43.360Z,5.30
2019-04-22T20:27:23.909Z,5.40
2019-04-22T20:29:56.369Z,5.10
2019-04-22T20:32:21.869Z,5.93
2019-04-22T20:34:57.654Z,5.80
2019-04-22T20:37:30.062Z,5.43
2019-04-22T20:39:52.491Z,5.30
2019-04-22T20:42:35.616Z,5.77
2019-04-22T20:44:56.721Z,5.80
2019-04-22T20:47:21.730Z,5.80
2019-04-22T20:50:04.486Z,5.83
2019-04-22T20:52:36.711Z,5.53
2019-04-22T20:54:54.439Z,5.03
2019-04-22T20:57:31.939Z,5.10
2019-04-22T20:59:55.631Z,5.87
2019-04-22T21:02:23.909Z,5.63
2019-04-22T21:04:49.055Z,5.20
2019-04-22T21:07:28.190Z,5.60
2019-04-22T21:09:57.785Z,5.73
2019-04-22T21:12:26.535Z,5.17
2019-04-22T21:15:10.678Z,5.10
2019-04-22T21:17:36.574Z,5.33
2019-04-22T21:20:10.469Z,5.80
2019-04-22T21:22:33.553Z,5.20
2019-04-22T21:25:03.552Z,5.50
2019-04-22T21:27:42.685Z,5.83
2019-04-22T21:29:58.612Z,5.10
2019-04-22T21:32:34.202Z,5.10
2019-04-22T21:35:16.327Z,5.60
2019-04-22T21:37:58.341Z,6.13
2019-04-22T21:40:05.237Z,5.97
2019-04-22T21:42:47.289Z,5.37
2019-04-22T21:45:07.264Z,5.40
2019-04-22T21:47:51.845Z,5.80
2019-04-22T21:50:28.200Z,5.30
2019-04-22T21:52:40.465Z,5.23
2019-04-22T21:55:16.085Z,5.37
2019-04-22T21:57:54.682Z,5.00
2019-04-22T22:00:27.767Z,5.37
2019-04-22T22:02:45.547Z,4.80
2019-04-22T22:05:12.617Z,4.70
2019-04-22T22:07:29.173Z,4.70
2019-04-22T22:10:15.036Z,4.27
2019-04-22T22:12:52.463Z,4.80
2019-04-22T22:15:23.116Z,4.10
2019-04-22T22:17:48.377Z,4.53
2019-04-22T22:20:14.631Z,4.43
2019-04-22T22:22:52.568Z,4.27
2019-04-22T22:25:21.178Z,4.40
2019-04-22T22:27:44.374Z,4.97
2019-04-22T22:30:40.099Z,5.53
2019-04-22T22:32:55.158Z,5.00
2019-04-22T22:35:20.694Z,4.73
2019-04-22T22:37:51.757Z,5.03
2019-04-22T22:40:07.511Z,5.37
2019-04-22T22:42:36.993Z,5.60
2019-04-22T22:45:13.871Z,5.10
2019-04-22T22:47:53.616Z,4.73
2019-04-22T22:50:23.316Z,5.13
2019-04-22T22:53:02.336Z,4.60
2019-04-22T22:55:22.297Z,4.60
2019-04-22T22:58:01.331Z,5.10
2019-04-22T23:00:22.506Z,4.90
2019-04-22T23:03:12.402Z,5.17
2019-04-22T23:05:33.395Z,4.77
2019-04-22T23:08:04.427Z,4.70
2019-04-22T23:10:34.128Z,5.23
2019-04-22T23:13:09.967Z,5.23
2019-04-22T23:15:27.701Z,4.73
2019-04-22T23:17:41.436Z,5.00
2019-04-22T23:20:11.733Z,5.13
2019-04-22T23:23:04.420Z,4.97
2019-04-22T23:25:33.344Z,4.80
2019-04-22T23:27:56.661Z,5.03
2019-04-22T23:30:38.285Z,5.17
2019-04-22T23:33:20.076Z,5.77
2019-04-22T23:35:52.863Z,5.03
2019-04-22T23:38:35.744Z,4.90
2019-04-22T23:41:09.321Z,4.37
2019-04-22T23:43:46.443Z,5.10
2019-04-22T23:46:08.244Z,5.30
2019-04-22T23:48:27.972Z,5.03
2019-04-22T23:51:09.236Z,5.77
2019-04-22T23:53:58.069Z,5.17
2019-04-22T23:56:07.905Z,5.30
